Terminal Aerodrome Forecast
Issued by NWS Wilmington, OH

Current Version | Previous Version | Text Only | Print | Product List | Glossary Off
Versions: 1 2 3 4 5 6 7 8 9 10 11 12 13 14 15 16 17 18 19 20 21 22 23 24 25

252
FTUS41 KILN 210902 AAB
TAFCMH
TAF AMD
KCMH 210902Z 2109/2206 16004KT 3SM -DZ BR OVC015
      TEMPO 2109/2111 1SM BR BKN005 OVC015
     FM211100 19006KT P6SM OVC025
     FM212200 20005KT 4SM BR VCSH OVC008
     FM220200 17003KT P6SM VCSH OVC006=

USA.gov is the U.S. government's official web portal to all federal, state and local government web resources and services.